sensor_id;sensor_type;location;lat;lon;timestamp;pressure;altitude;pressure_sealevel;temperature;humidity
11672;BME280;5892;43.412;24.612;2023-03-23T00:01:19;100137.75;;;9.64;100.00
11672;BME280;5892;43.412;24.612;2023-03-23T00:03:53;100112.19;;;9.46;100.00
11672;BME280;5892;43.412;24.612;2023-03-23T00:06:23;100131.97;;;9.65;100.00
11672;BME280;5892;43.412;24.612;2023-03-23T00:08:53;100109.13;;;9.48;100.00
11672;BME280;5892;43.412;24.612;2023-03-23T00:11:26;100120.16;;;9.56;100.00
11672;BME280;5892;43.412;24.612;2023-03-23T00:13:55;100117.03;;;9.49;100.00
11672;BME280;5892;43.412;24.612;2023-03-23T00:16:28;100098.53;;;9.32;100.00
11672;BME280;5892;43.412;24.612;2023-03-23T00:19:00;100123.59;;;9.48;100.00
11672;BME280;5892;43.412;24.612;2023-03-23T00:21:31;100105.69;;;9.42;100.00
11672;BME280;5892;43.412;24.612;2023-03-23T00:24:06;100127.47;;;9.47;100.00
11672;BME280;5892;43.412;24.612;2023-03-23T00:26:35;100111.78;;;9.39;100.00
11672;BME280;5892;43.412;24.612;2023-03-23T00:29:07;100114.63;;;9.34;100.00
11672;BME280;5892;43.412;24.612;2023-03-23T00:31:35;100075.06;;;9.18;100.00
11672;BME280;5892;43.412;24.612;2023-03-23T00:34:05;100059.00;;;8.75;100.00
11672;BME280;5892;43.412;24.612;2023-03-23T00:36:33;100121.53;;;9.31;100.00
11672;BME280;5892;43.412;24.612;2023-03-23T00:39:01;100117.47;;;9.29;100.00
11672;BME280;5892;43.412;24.612;2023-03-23T00:41:29;100109.16;;;9.34;100.00
11672;BME280;5892;43.412;24.612;2023-03-23T00:43:58;100101.81;;;8.93;100.00
11672;BME280;5892;43.412;24.612;2023-03-23T00:46:26;100108.69;;;8.91;100.00
11672;BME280;5892;43.412;24.612;2023-03-23T00:48:55;100104.56;;;8.93;100.00
11672;BME280;5892;43.412;24.612;2023-03-23T00:51:25;100124.38;;;9.13;100.00
11672;BME280;5892;43.412;24.612;2023-03-23T00:53:52;100043.84;;;8.83;100.00
11672;BME280;5892;43.412;24.612;2023-03-23T00:56:20;100116.16;;;9.26;100.00
11672;BME280;5892;43.412;24.612;2023-03-23T00:58:49;100113.59;;;9.44;100.00
11672;BME280;5892;43.412;24.612;2023-03-23T01:01:18;100121.91;;;9.39;100.00
11672;BME280;5892;43.412;24.612;2023-03-23T01:03:45;100120.91;;;9.34;100.00
11672;BME280;5892;43.412;24.612;2023-03-23T01:06:12;100031.09;;;8.65;100.00
11672;BME280;5892;43.412;24.612;2023-03-23T01:08:42;100076.22;;;8.89;100.00
11672;BME280;5892;43.412;24.612;2023-03-23T01:11:14;100031.59;;;8.80;100.00
11672;BME280;5892;43.412;24.612;2023-03-23T01:13:41;100103.50;;;9.17;100.00
11672;BME280;5892;43.412;24.612;2023-03-23T01:16:09;100107.13;;;9.40;100.00
11672;BME280;5892;43.412;24.612;2023-03-23T01:18:37;100114.31;;;9.35;100.00
11672;BME280;5892;43.412;24.612;2023-03-23T01:21:05;99993.59;;;8.57;100.00
11672;BME280;5892;43.412;24.612;2023-03-23T01:23:34;100054.63;;;9.15;100.00
11672;BME280;5892;43.412;24.612;2023-03-23T01:26:19;100110.97;;;9.52;100.00
11672;BME280;5892;43.412;24.612;2023-03-23T01:28:48;100108.69;;;9.54;100.00
11672;BME280;5892;43.412;24.612;2023-03-23T01:31:16;100098.19;;;9.48;100.00
11672;BME280;5892;43.412;24.612;2023-03-23T01:33:46;100060.09;;;9.02;100.00
11672;BME280;5892;43.412;24.612;2023-03-23T01:36:15;100073.69;;;9.43;100.00
11672;BME280;5892;43.412;24.612;2023-03-23T01:38:43;100102.94;;;9.56;100.00
11672;BME280;5892;43.412;24.612;2023-03-23T01:41:13;100109.56;;;9.63;100.00
11672;BME280;5892;43.412;24.612;2023-03-23T01:43:56;100117.72;;;9.55;100.00
11672;BME280;5892;43.412;24.612;2023-03-23T01:46:25;100117.03;;;9.49;100.00
11672;BME280;5892;43.412;24.612;2023-03-23T01:48:54;100134.53;;;9.48;100.00
11672;BME280;5892;43.412;24.612;2023-03-23T01:51:24;100045.28;;;9.16;100.00
11672;BME280;5892;43.412;24.612;2023-03-23T01:53:56;100055.63;;;9.06;100.00
11672;BME280;5892;43.412;24.612;2023-03-23T01:56:25;100101.84;;;9.43;100.00
11672;BME280;5892;43.412;24.612;2023-03-23T01:58:57;100079.78;;;9.40;100.00
11672;BME280;5892;43.412;24.612;2023-03-23T02:01:25;100108.41;;;9.56;100.00
11672;BME280;5892;43.412;24.612;2023-03-23T02:03:54;100105.03;;;9.59;100.00
11672;BME280;5892;43.412;24.612;2023-03-23T02:06:22;100115.16;;;9.72;100.00
11672;BME280;5892;43.412;24.612;2023-03-23T02:08:50;100126.09;;;9.72;100.00
11672;BME280;5892;43.412;24.612;2023-03-23T02:11:20;100115.94;;;9.72;100.00
11672;BME280;5892;43.412;24.612;2023-03-23T02:13:49;100128.59;;;9.68;100.00
11672;BME280;5892;43.412;24.612;2023-03-23T02:16:25;100115.16;;;9.58;100.00
11672;BME280;5892;43.412;24.612;2023-03-23T02:18:59;100058.53;;;9.23;100.00
11672;BME280;5892;43.412;24.612;2023-03-23T02:24:56;100116.31;;;9.79;100.00
11672;BME280;5892;43.412;24.612;2023-03-23T02:27:36;100104.31;;;9.67;100.00
11672;BME280;5892;43.412;24.612;2023-03-23T02:30:34;100101.75;;;9.70;100.00
11672;BME280;5892;43.412;24.612;2023-03-23T02:33:33;100123.03;;;9.73;100.00
11672;BME280;5892;43.412;24.612;2023-03-23T02:36:08;100118.19;;;9.70;100.00
11672;BME280;5892;43.412;24.612;2023-03-23T02:38:41;100088.38;;;9.47;100.00
11672;BME280;5892;43.412;24.612;2023-03-23T02:41:10;100106.97;;;9.58;100.00
11672;BME280;5892;43.412;24.612;2023-03-23T02:43:42;100126.69;;;9.69;100.00
11672;BME280;5892;43.412;24.612;2023-03-23T02:46:12;100134.31;;;9.58;100.00
11672;BME280;5892;43.412;24.612;2023-03-23T02:48:44;100082.81;;;9.38;100.00
11672;BME280;5892;43.412;24.612;2023-03-23T02:51:14;100126.50;;;9.65;100.00
11672;BME280;5892;43.412;24.612;2023-03-23T02:53:43;100087.56;;;9.46;100.00
11672;BME280;5892;43.412;24.612;2023-03-23T02:56:13;100131.13;;;9.78;100.00
11672;BME280;5892;43.412;24.612;2023-03-23T02:58:42;100109.47;;;9.68;100.00
11672;BME280;5892;43.412;24.612;2023-03-23T03:01:48;100126.97;;;9.81;100.00
11672;BME280;5892;43.412;24.612;2023-03-23T03:04:22;100139.34;;;9.78;100.00
11672;BME280;5892;43.412;24.612;2023-03-23T03:07:00;100095.94;;;9.50;100.00
11672;BME280;5892;43.412;24.612;2023-03-23T03:09:37;100131.13;;;9.78;100.00
11672;BME280;5892;43.412;24.612;2023-03-23T03:12:12;100055.09;;;9.31;100.00
11672;BME280;5892;43.412;24.612;2023-03-23T03:14:46;100101.28;;;9.19;100.00
11672;BME280;5892;43.412;24.612;2023-03-23T03:17:20;100170.78;;;9.67;100.00
11672;BME280;5892;43.412;24.612;2023-03-23T03:19:54;100155.84;;;9.73;100.00
11672;BME280;5892;43.412;24.612;2023-03-23T03:22:25;100102.69;;;9.30;100.00
11672;BME280;5892;43.412;24.612;2023-03-23T03:24:57;100160.97;;;9.66;100.00
11672;BME280;5892;43.412;24.612;2023-03-23T03:27:26;100154.03;;;9.69;100.00
11672;BME280;5892;43.412;24.612;2023-03-23T03:29:56;100159.09;;;9.75;100.00
11672;BME280;5892;43.412;24.612;2023-03-23T03:32:30;100069.94;;;9.03;100.00
11672;BME280;5892;43.412;24.612;2023-03-23T03:35:01;100162.34;;;9.77;100.00
11672;BME280;5892;43.412;24.612;2023-03-23T03:37:33;100138.88;;;9.63;100.00
11672;BME280;5892;43.412;24.612;2023-03-23T03:40:06;100122.91;;;9.43;100.00
11672;BME280;5892;43.412;24.612;2023-03-23T03:42:37;100140.41;;;9.55;100.00
11672;BME280;5892;43.412;24.612;2023-03-23T03:45:06;100161.38;;;9.60;100.00
11672;BME280;5892;43.412;24.612;2023-03-23T03:47:35;100148.56;;;9.19;100.00
11672;BME280;5892;43.412;24.612;2023-03-23T03:50:05;100075.41;;;8.75;100.00
11672;BME280;5892;43.412;24.612;2023-03-23T03:52:35;100164.66;;;9.34;100.00
11672;BME280;5892;43.412;24.612;2023-03-23T03:55:05;100146.44;;;9.30;100.00
11672;BME280;5892;43.412;24.612;2023-03-23T03:57:32;100155.50;;;9.53;100.00
11672;BME280;5892;43.412;24.612;2023-03-23T04:00:02;100161.13;;;9.34;100.00
11672;BME280;5892;43.412;24.612;2023-03-23T04:02:41;100166.06;;;9.32;100.00
11672;BME280;5892;43.412;24.612;2023-03-23T04:05:17;100162.44;;;9.37;100.00
11672;BME280;5892;43.412;24.612;2023-03-23T04:07:46;100087.34;;;8.93;100.00
11672;BME280;5892;43.412;24.612;2023-03-23T04:10:18;100163.03;;;9.47;100.00
11672;BME280;5892;43.412;24.612;2023-03-23T04:12:46;100164.63;;;9.48;100.00
11672;BME280;5892;43.412;24.612;2023-03-23T04:15:13;100065.88;;;8.86;100.00
11672;BME280;5892;43.412;24.612;2023-03-23T04:17:41;100154.03;;;9.33;100.00
11672;BME280;5892;43.412;24.612;2023-03-23T04:20:10;100153.75;;;9.21;100.00
11672;BME280;5892;43.412;24.612;2023-03-23T04:22:46;100170.13;;;9.34;100.00
11672;BME280;5892;43.412;24.612;2023-03-23T04:25:16;100167.59;;;9.38;100.00
11672;BME280;5892;43.412;24.612;2023-03-23T04:27:47;100180.03;;;9.44;100.00
11672;BME280;5892;43.412;24.612;2023-03-23T04:30:18;100064.47;;;8.75;100.00
11672;BME280;5892;43.412;24.612;2023-03-23T04:32:46;100167.25;;;9.53;100.00
11672;BME280;5892;43.412;24.612;2023-03-23T04:35:17;100169.28;;;9.61;100.00
11672;BME280;5892;43.412;24.612;2023-03-23T04:37:48;100149.06;;;9.35;100.00
11672;BME280;5892;43.412;24.612;2023-03-23T04:40:19;100164.44;;;9.45;100.00
11672;BME280;5892;43.412;24.612;2023-03-23T04:42:49;100191.88;;;9.53;100.00
11672;BME280;5892;43.412;24.612;2023-03-23T04:45:19;100175.88;;;9.60;100.00
11672;BME280;5892;43.412;24.612;2023-03-23T04:47:51;100179.00;;;9.67;100.00
11672;BME280;5892;43.412;24.612;2023-03-23T04:50:26;100128.22;;;9.25;100.00
11672;BME280;5892;43.412;24.612;2023-03-23T04:52:55;100170.78;;;9.67;100.00
11672;BME280;5892;43.412;24.612;2023-03-23T04:55:26;100180.19;;;9.75;100.00
11672;BME280;5892;43.412;24.612;2023-03-23T04:57:54;100178.94;;;9.81;100.00
11672;BME280;5892;43.412;24.612;2023-03-23T05:00:21;100184.00;;;9.88;100.00
11672;BME280;5892;43.412;24.612;2023-03-23T05:02:49;100180.56;;;9.82;100.00
11672;BME280;5892;43.412;24.612;2023-03-23T05:05:19;100133.84;;;9.56;100.00
11672;BME280;5892;43.412;24.612;2023-03-23T05:07:47;100188.25;;;9.94;100.00
11672;BME280;5892;43.412;24.612;2023-03-23T05:10:17;100197.16;;;9.99;100.00
11672;BME280;5892;43.412;24.612;2023-03-23T05:12:45;100170.22;;;9.79;100.00
11672;BME280;5892;43.412;24.612;2023-03-23T05:15:14;100196.34;;;9.99;100.00
11672;BME280;5892;43.412;24.612;2023-03-23T05:17:47;100089.94;;;9.25;100.00
11672;BME280;5892;43.412;24.612;2023-03-23T05:20:18;100100.78;;;9.53;100.00
11672;BME280;5892;43.412;24.612;2023-03-23T05:22:55;100185.94;;;10.23;100.00
11672;BME280;5892;43.412;24.612;2023-03-23T05:25:24;100116.31;;;9.79;100.00
11672;BME280;5892;43.412;24.612;2023-03-23T05:27:51;100129.25;;;9.65;100.00
11672;BME280;5892;43.412;24.612;2023-03-23T05:30:20;100190.84;;;10.35;100.00
11672;BME280;5892;43.412;24.612;2023-03-23T05:32:48;100194.75;;;10.42;100.00
11672;BME280;5892;43.412;24.612;2023-03-23T05:35:17;100184.94;;;10.41;100.00
11672;BME280;5892;43.412;24.612;2023-03-23T05:37:45;100197.88;;;10.49;100.00
11672;BME280;5892;43.412;24.612;2023-03-23T05:40:14;100199.50;;;10.50;100.00
11672;BME280;5892;43.412;24.612;2023-03-23T05:42:43;100149.81;;;10.21;100.00
11672;BME280;5892;43.412;24.612;2023-03-23T05:45:11;100193.63;;;10.66;100.00
11672;BME280;5892;43.412;24.612;2023-03-23T05:47:38;100208.56;;;10.82;100.00
11672;BME280;5892;43.412;24.612;2023-03-23T05:50:08;100140.72;;;10.56;100.00
11672;BME280;5892;43.412;24.612;2023-03-23T05:52:36;100207.72;;;11.12;100.00
11672;BME280;5892;43.412;24.612;2023-03-23T05:55:04;100218.41;;;11.22;100.00
11672;BME280;5892;43.412;24.612;2023-03-23T06:00:27;100190.44;;;11.03;100.00
11672;BME280;5892;43.412;24.612;2023-03-23T06:02:56;100158.84;;;10.75;100.00
11672;BME280;5892;43.412;24.612;2023-03-23T06:05:24;100168.16;;;11.04;100.00
11672;BME280;5892;43.412;24.612;2023-03-23T06:07:52;100223.31;;;11.42;100.00
11672;BME280;5892;43.412;24.612;2023-03-23T06:10:22;100217.00;;;11.25;100.00
11672;BME280;5892;43.412;24.612;2023-03-23T06:12:50;100229.47;;;11.48;100.00
11672;BME280;5892;43.412;24.612;2023-03-23T06:15:18;100230.44;;;11.43;100.00
11672;BME280;5892;43.412;24.612;2023-03-23T06:17:47;100215.88;;;11.34;100.00
11672;BME280;5892;43.412;24.612;2023-03-23T06:20:16;100235.16;;;11.60;100.00
11672;BME280;5892;43.412;24.612;2023-03-23T06:22:43;100093.88;;;10.75;100.00
11672;BME280;5892;43.412;24.612;2023-03-23T06:28:17;100237.69;;;11.96;100.00
11672;BME280;5892;43.412;24.612;2023-03-23T06:30:46;100242.69;;;11.85;100.00
11672;BME280;5892;43.412;24.612;2023-03-23T06:33:15;100189.59;;;11.42;100.00
11672;BME280;5892;43.412;24.612;2023-03-23T06:35:44;100248.75;;;11.65;100.00
11672;BME280;5892;43.412;24.612;2023-03-23T06:38:12;100252.31;;;11.66;100.00
11672;BME280;5892;43.412;24.612;2023-03-23T06:40:40;100253.47;;;11.73;100.00
11672;BME280;5892;43.412;24.612;2023-03-23T06:43:11;100264.44;;;11.73;100.00
11672;BME280;5892;43.412;24.612;2023-03-23T06:45:49;100210.72;;;11.41;100.00
11672;BME280;5892;43.412;24.612;2023-03-23T06:48:19;100262.72;;;11.86;100.00
11672;BME280;5892;43.412;24.612;2023-03-23T06:50:46;100172.75;;;11.26;100.00
11672;BME280;5892;43.412;24.612;2023-03-23T06:53:14;100264.66;;;11.94;100.00
11672;BME280;5892;43.412;24.612;2023-03-23T06:55:43;100242.53;;;11.99;100.00
11672;BME280;5892;43.412;24.612;2023-03-23T06:58:10;100268.59;;;12.45;100.00
11672;BME280;5892;43.412;24.612;2023-03-23T07:00:38;100193.28;;;12.11;100.00
11672;BME280;5892;43.412;24.612;2023-03-23T07:03:05;100274.03;;;12.79;100.00
11672;BME280;5892;43.412;24.612;2023-03-23T07:05:35;100272.78;;;12.77;100.00
11672;BME280;5892;43.412;24.612;2023-03-23T07:08:04;100278.25;;;12.68;100.00
11672;BME280;5892;43.412;24.612;2023-03-23T07:10:33;100282.25;;;12.88;100.00
11672;BME280;5892;43.412;24.612;2023-03-23T07:13:01;100195.34;;;12.31;100.00
11672;BME280;5892;43.412;24.612;2023-03-23T07:15:29;100293.75;;;12.98;100.00
11672;BME280;5892;43.412;24.612;2023-03-23T07:17:57;100281.91;;;13.06;100.00
11672;BME280;5892;43.412;24.612;2023-03-23T07:20:24;100288.72;;;13.18;100.00
11672;BME280;5892;43.412;24.612;2023-03-23T07:22:54;100295.50;;;13.29;100.00
11672;BME280;5892;43.412;24.612;2023-03-23T07:25:21;100280.16;;;13.57;100.00
11672;BME280;5892;43.412;24.612;2023-03-23T07:27:48;100301.41;;;13.86;100.00
11672;BME280;5892;43.412;24.612;2023-03-23T07:30:15;100216.88;;;13.48;100.00
11672;BME280;5892;43.412;24.612;2023-03-23T07:32:45;100232.06;;;13.54;100.00
11672;BME280;5892;43.412;24.612;2023-03-23T07:35:13;100275.19;;;13.71;100.00
11672;BME280;5892;43.412;24.612;2023-03-23T07:37:41;100271.09;;;13.86;100.00
11672;BME280;5892;43.412;24.612;2023-03-23T07:40:12;100296.13;;;14.02;100.00
11672;BME280;5892;43.412;24.612;2023-03-23T07:42:41;100302.66;;;13.88;100.00
11672;BME280;5892;43.412;24.612;2023-03-23T07:45:10;100289.94;;;14.05;100.00
11672;BME280;5892;43.412;24.612;2023-03-23T07:47:38;100215.31;;;13.68;100.00
11672;BME280;5892;43.412;24.612;2023-03-23T07:50:06;100197.72;;;13.61;100.00
11672;BME280;5892;43.412;24.612;2023-03-23T07:52:34;100297.56;;;14.28;100.00
11672;BME280;5892;43.412;24.612;2023-03-23T07:55:02;100295.03;;;14.15;100.00
11672;BME280;5892;43.412;24.612;2023-03-23T07:57:32;100298.72;;;13.98;100.00
11672;BME280;5892;43.412;24.612;2023-03-23T08:00:00;100290.19;;;14.41;100.00
11672;BME280;5892;43.412;24.612;2023-03-23T08:02:41;100286.78;;;14.44;100.00
11672;BME280;5892;43.412;24.612;2023-03-23T08:05:08;100299.03;;;14.88;100.00
11672;BME280;5892;43.412;24.612;2023-03-23T08:07:36;100293.03;;;14.24;100.00
11672;BME280;5892;43.412;24.612;2023-03-23T08:10:04;100309.31;;;13.87;100.00
11672;BME280;5892;43.412;24.612;2023-03-23T08:12:39;100301.91;;;13.50;100.00
11672;BME280;5892;43.412;24.612;2023-03-23T08:15:09;100293.34;;;13.72;100.00
11672;BME280;5892;43.412;24.612;2023-03-23T08:17:39;100280.97;;;13.87;100.00
11672;BME280;5892;43.412;24.612;2023-03-23T08:20:09;100303.97;;;13.91;100.00
11672;BME280;5892;43.412;24.612;2023-03-23T08:22:39;100304.66;;;14.09;100.00
11672;BME280;5892;43.412;24.612;2023-03-23T08:25:09;100183.50;;;13.21;100.00
11672;BME280;5892;43.412;24.612;2023-03-23T08:27:40;100309.03;;;14.39;100.00
11672;BME280;5892;43.412;24.612;2023-03-23T08:30:10;100281.91;;;14.41;100.00
11672;BME280;5892;43.412;24.612;2023-03-23T08:32:38;100301.78;;;14.88;100.00
11672;BME280;5892;43.412;24.612;2023-03-23T08:35:07;100302.22;;;15.23;100.00
11672;BME280;5892;43.412;24.612;2023-03-23T08:37:35;100293.06;;;15.43;100.00
11672;BME280;5892;43.412;24.612;2023-03-23T08:40:05;100295.63;;;15.48;100.00
11672;BME280;5892;43.412;24.612;2023-03-23T08:42:35;100215.88;;;14.65;100.00
11672;BME280;5892;43.412;24.612;2023-03-23T08:45:07;100253.09;;;14.09;100.00
11672;BME280;5892;43.412;24.612;2023-03-23T08:47:36;100284.31;;;14.63;100.00
11672;BME280;5892;43.412;24.612;2023-03-23T08:50:06;100298.72;;;14.69;100.00
11672;BME280;5892;43.412;24.612;2023-03-23T08:52:35;100294.41;;;14.80;100.00
11672;BME280;5892;43.412;24.612;2023-03-23T08:55:02;100284.19;;;14.80;100.00
11672;BME280;5892;43.412;24.612;2023-03-23T08:57:30;100291.56;;;14.89;100.00
11672;BME280;5892;43.412;24.612;2023-03-23T08:59:58;100298.69;;;14.90;100.00
11672;BME280;5892;43.412;24.612;2023-03-23T09:02:36;100305.84;;;15.03;100.00
11672;BME280;5892;43.412;24.612;2023-03-23T09:05:20;100298.91;;;15.17;100.00
11672;BME280;5892;43.412;24.612;2023-03-23T09:07:51;100206.34;;;14.00;100.00
11672;BME280;5892;43.412;24.612;2023-03-23T09:10:20;100293.41;;;14.43;100.00
11672;BME280;5892;43.412;24.612;2023-03-23T09:12:47;100297.47;;;14.16;100.00
11672;BME280;5892;43.412;24.612;2023-03-23T09:15:16;100288.72;;;14.35;100.00
11672;BME280;5892;43.412;24.612;2023-03-23T09:17:46;100289.41;;;14.32;100.00
11672;BME280;5892;43.412;24.612;2023-03-23T09:20:17;100228.66;;;13.87;100.00
11672;BME280;5892;43.412;24.612;2023-03-23T09:22:50;100295.63;;;14.70;100.00
11672;BME280;5892;43.412;24.612;2023-03-23T09:25:20;100292.41;;;15.13;100.00
11672;BME280;5892;43.412;24.612;2023-03-23T09:27:49;100263.56;;;15.23;100.00
11672;BME280;5892;43.412;24.612;2023-03-23T09:30:19;100177.19;;;15.10;100.00
11672;BME280;5892;43.412;24.612;2023-03-23T09:32:48;100278.59;;;15.71;99.45
11672;BME280;5892;43.412;24.612;2023-03-23T09:35:16;100219.66;;;15.42;95.73
11672;BME280;5892;43.412;24.612;2023-03-23T09:37:43;100285.59;;;16.17;95.69
11672;BME280;5892;43.412;24.612;2023-03-23T09:40:13;100291.09;;;16.29;85.04
11672;BME280;5892;43.412;24.612;2023-03-23T09:45:38;100175.09;;;16.32;83.41
11672;BME280;5892;43.412;24.612;2023-03-23T09:48:26;100262.63;;;16.96;81.92
11672;BME280;5892;43.412;24.612;2023-03-23T09:51:02;100248.19;;;17.18;80.53
11672;BME280;5892;43.412;24.612;2023-03-23T09:53:38;100243.28;;;17.27;79.87
11672;BME280;5892;43.412;24.612;2023-03-23T09:56:10;100251.94;;;16.67;77.08
11672;BME280;5892;43.412;24.612;2023-03-23T09:58:44;100282.44;;;16.42;77.26
11672;BME280;5892;43.412;24.612;2023-03-23T10:01:18;100263.97;;;16.06;78.90
11672;BME280;5892;43.412;24.612;2023-03-23T10:03:48;100283.19;;;16.03;77.54
11672;BME280;5892;43.412;24.612;2023-03-23T10:06:16;100250.06;;;15.91;78.66
11672;BME280;5892;43.412;24.612;2023-03-23T10:08:46;100277.19;;;16.13;78.54
11672;BME280;5892;43.412;24.612;2023-03-23T10:11:19;100274.38;;;16.37;77.69
11672;BME280;5892;43.412;24.612;2023-03-23T10:14:14;100268.47;;;16.51;75.78
11672;BME280;5892;43.412;24.612;2023-03-23T10:16:54;100254.53;;;16.47;76.31
11672;BME280;5892;43.412;24.612;2023-03-23T10:19:32;100259.66;;;16.73;75.24
11672;BME280;5892;43.412;24.612;2023-03-23T10:22:04;100202.41;;;16.49;70.11
11672;BME280;5892;43.412;24.612;2023-03-23T10:24:35;100242.72;;;17.06;68.94
11672;BME280;5892;43.412;24.612;2023-03-23T10:27:15;100256.78;;;17.45;67.50
11672;BME280;5892;43.412;24.612;2023-03-23T10:29:53;100252.16;;;17.64;66.30
11672;BME280;5892;43.412;24.612;2023-03-23T10:32:43;100237.22;;;17.38;65.44
11672;BME280;5892;43.412;24.612;2023-03-23T10:35:18;100174.16;;;17.15;66.42
11672;BME280;5892;43.412;24.612;2023-03-23T10:37:49;100258.13;;;17.82;65.63
11672;BME280;5892;43.412;24.612;2023-03-23T10:40:26;100253.59;;;18.09;64.97
11672;BME280;5892;43.412;24.612;2023-03-23T10:42:55;100247.25;;;18.08;65.25
11672;BME280;5892;43.412;24.612;2023-03-23T10:45:24;100244.19;;;18.33;64.52
11672;BME280;5892;43.412;24.612;2023-03-23T10:47:56;100189.38;;;18.07;62.54
11672;BME280;5892;43.412;24.612;2023-03-23T10:50:31;100170.75;;;17.88;61.80
11672;BME280;5892;43.412;24.612;2023-03-23T10:53:10;100237.66;;;18.60;60.60
11672;BME280;5892;43.412;24.612;2023-03-23T10:55:42;100233.00;;;18.83;60.22
11672;BME280;5892;43.412;24.612;2023-03-23T10:58:21;100234.19;;;19.05;61.45
11672;BME280;5892;43.412;24.612;2023-03-23T11:00:50;100233.19;;;19.17;61.88
11672;BME280;5892;43.412;24.612;2023-03-23T11:03:25;100158.00;;;18.60;58.47
11672;BME280;5892;43.412;24.612;2023-03-23T11:05:59;100229.91;;;18.88;59.43
11672;BME280;5892;43.412;24.612;2023-03-23T11:08:29;100213.72;;;18.71;58.72
11672;BME280;5892;43.412;24.612;2023-03-23T11:11:08;100214.13;;;18.35;59.95
11672;BME280;5892;43.412;24.612;2023-03-23T11:13:40;100220.03;;;18.33;60.12
11672;BME280;5892;43.412;24.612;2023-03-23T11:16:21;100148.56;;;17.69;59.68
11672;BME280;5892;43.412;24.612;2023-03-23T11:18:49;100219.59;;;17.77;59.88
11672;BME280;5892;43.412;24.612;2023-03-23T11:21:20;100220.94;;;17.83;60.26
11672;BME280;5892;43.412;24.612;2023-03-23T11:23:51;100220.38;;;17.93;59.80
11672;BME280;5892;43.412;24.612;2023-03-23T11:26:22;100182.78;;;17.45;59.59
11672;BME280;5892;43.412;24.612;2023-03-23T11:29:27;100083.25;;;16.70;60.23
11672;BME280;5892;43.412;24.612;2023-03-23T11:32:04;100207.38;;;17.47;61.89
11672;BME280;5892;43.412;24.612;2023-03-23T11:34:35;100193.63;;;17.19;65.76
11672;BME280;5892;43.412;24.612;2023-03-23T11:37:10;100159.94;;;17.32;66.09
11672;BME280;5892;43.412;24.612;2023-03-23T11:39:55;100186.53;;;18.03;65.06
11672;BME280;5892;43.412;24.612;2023-03-23T11:42:25;100202.66;;;18.17;63.14
11672;BME280;5892;43.412;24.612;2023-03-23T11:45:13;100177.56;;;18.10;63.09
11672;BME280;5892;43.412;24.612;2023-03-23T11:47:47;100176.09;;;17.97;63.05
11672;BME280;5892;43.412;24.612;2023-03-23T11:50:20;100185.78;;;18.06;62.24
11672;BME280;5892;43.412;24.612;2023-03-23T11:52:55;100159.91;;;17.64;63.78
11672;BME280;5892;43.412;24.612;2023-03-23T11:55:33;100165.22;;;17.88;62.34
11672;BME280;5892;43.412;24.612;2023-03-23T11:58:10;100177.78;;;17.51;64.21
11672;BME280;5892;43.412;24.612;2023-03-23T12:00:42;100177.97;;;17.42;65.39
11672;BME280;5892;43.412;24.612;2023-03-23T12:03:35;100181.81;;;16.90;65.97
11672;BME280;5892;43.412;24.612;2023-03-23T12:06:07;100182.59;;;16.75;66.52
11672;BME280;5892;43.412;24.612;2023-03-23T12:09:01;100178.97;;;17.18;65.86
11672;BME280;5892;43.412;24.612;2023-03-23T12:11:38;100177.50;;;17.56;65.33
11672;BME280;5892;43.412;24.612;2023-03-23T12:14:16;100177.06;;;17.38;64.97
11672;BME280;5892;43.412;24.612;2023-03-23T12:16:59;100123.94;;;17.17;65.51
11672;BME280;5892;43.412;24.612;2023-03-23T12:19:36;100174.59;;;17.17;63.85
11672;BME280;5892;43.412;24.612;2023-03-23T12:22:19;100114.09;;;16.57;64.86
11672;BME280;5892;43.412;24.612;2023-03-23T12:25:04;100175.84;;;17.35;66.32
11672;BME280;5892;43.412;24.612;2023-03-23T12:27:39;100183.63;;;17.30;64.42
11672;BME280;5892;43.412;24.612;2023-03-23T12:30:23;100169.47;;;17.51;64.48
11672;BME280;5892;43.412;24.612;2023-03-23T12:33:03;100135.44;;;17.34;63.27
11672;BME280;5892;43.412;24.612;2023-03-23T12:35:44;100152.09;;;17.69;62.49
11672;BME280;5892;43.412;24.612;2023-03-23T12:38:34;100160.59;;;17.96;61.79
11672;BME280;5892;43.412;24.612;2023-03-23T12:41:13;100161.91;;;17.83;60.54
11672;BME280;5892;43.412;24.612;2023-03-23T12:43:48;100158.50;;;17.89;59.88
11672;BME280;5892;43.412;24.612;2023-03-23T12:46:31;100162.72;;;17.83;60.23
11672;BME280;5892;43.412;24.612;2023-03-23T12:49:03;100158.22;;;17.94;59.04
11672;BME280;5892;43.412;24.612;2023-03-23T12:51:35;100167.41;;;17.79;58.47
11672;BME280;5892;43.412;24.612;2023-03-23T12:54:11;100149.22;;;17.82;59.48
11672;BME280;5892;43.412;24.612;2023-03-23T12:56:49;100167.34;;;17.95;58.88
11672;BME280;5892;43.412;24.612;2023-03-23T12:59:24;100126.47;;;17.92;58.73
11672;BME280;5892;43.412;24.612;2023-03-23T13:01:57;100142.47;;;17.98;58.87
11672;BME280;5892;43.412;24.612;2023-03-23T13:04:31;100169.03;;;18.18;59.29
11672;BME280;5892;43.412;24.612;2023-03-23T13:07:02;100150.34;;;18.35;58.32
11672;BME280;5892;43.412;24.612;2023-03-23T13:09:42;100149.72;;;18.64;57.59
11672;BME280;5892;43.412;24.612;2023-03-23T13:12:16;100108.00;;;18.18;56.15
11672;BME280;5892;43.412;24.612;2023-03-23T13:14:50;100122.72;;;18.61;55.64
11672;BME280;5892;43.412;24.612;2023-03-23T13:17:47;100101.41;;;18.27;57.99
11672;BME280;5892;43.412;24.612;2023-03-23T13:20:34;100137.03;;;18.44;57.43
11672;BME280;5892;43.412;24.612;2023-03-23T13:23:09;100104.28;;;18.11;59.50
11672;BME280;5892;43.412;24.612;2023-03-23T13:25:51;100124.66;;;18.18;59.91